sensor_id;sensor_type;location;lat;lon;timestamp;temperature;humidity
14409;DHT22;7289;50.706;4.992;2024-01-25T00:00:07;9.40;99.90
14409;DHT22;7289;50.706;4.992;2024-01-25T00:02:35;9.40;99.90
14409;DHT22;7289;50.706;4.992;2024-01-25T00:05:04;9.40;99.90
14409;DHT22;7289;50.706;4.992;2024-01-25T00:07:34;9.40;99.90
14409;DHT22;7289;50.706;4.992;2024-01-25T00:10:02;9.40;99.90
14409;DHT22;7289;50.706;4.992;2024-01-25T00:12:35;9.40;99.90
14409;DHT22;7289;50.706;4.992;2024-01-25T00:15:05;9.40;99.90
14409;DHT22;7289;50.706;4.992;2024-01-25T00:17:33;9.40;99.90
14409;DHT22;7289;50.706;4.992;2024-01-25T00:20:01;9.30;99.90
14409;DHT22;7289;50.706;4.992;2024-01-25T00:22:30;9.30;99.90
14409;DHT22;7289;50.706;4.992;2024-01-25T00:24:59;9.30;99.90
14409;DHT22;7289;50.706;4.992;2024-01-25T00:27:27;9.20;99.90
14409;DHT22;7289;50.706;4.992;2024-01-25T00:29:57;9.20;99.90
14409;DHT22;7289;50.706;4.992;2024-01-25T00:32:26;9.10;99.90
14409;DHT22;7289;50.706;4.992;2024-01-25T00:34:55;9.10;99.90
14409;DHT22;7289;50.706;4.992;2024-01-25T00:37:24;9.10;99.90
14409;DHT22;7289;50.706;4.992;2024-01-25T00:39:52;9.10;99.90
14409;DHT22;7289;50.706;4.992;2024-01-25T00:42:22;9.10;99.90
14409;DHT22;7289;50.706;4.992;2024-01-25T00:44:51;9.00;99.90
14409;DHT22;7289;50.706;4.992;2024-01-25T00:47:22;8.90;99.90
14409;DHT22;7289;50.706;4.992;2024-01-25T00:49:51;8.90;99.90
14409;DHT22;7289;50.706;4.992;2024-01-25T00:52:20;8.80;99.90
14409;DHT22;7289;50.706;4.992;2024-01-25T00:54:49;8.80;99.90
14409;DHT22;7289;50.706;4.992;2024-01-25T00:57:19;8.80;99.90
14409;DHT22;7289;50.706;4.992;2024-01-25T00:59:47;8.80;99.90
14409;DHT22;7289;50.706;4.992;2024-01-25T01:02:17;8.80;99.90
14409;DHT22;7289;50.706;4.992;2024-01-25T01:04:50;8.70;99.90
14409;DHT22;7289;50.706;4.992;2024-01-25T01:07:19;8.70;99.90
14409;DHT22;7289;50.706;4.992;2024-01-25T01:09:48;8.80;99.90
14409;DHT22;7289;50.706;4.992;2024-01-25T01:12:17;8.80;99.90
14409;DHT22;7289;50.706;4.992;2024-01-25T01:14:45;8.70;99.90
14409;DHT22;7289;50.706;4.992;2024-01-25T01:17:14;8.70;99.90
14409;DHT22;7289;50.706;4.992;2024-01-25T01:19:42;8.70;99.90
14409;DHT22;7289;50.706;4.992;2024-01-25T01:22:12;8.70;99.90
14409;DHT22;7289;50.706;4.992;2024-01-25T01:24:41;8.70;99.90
14409;DHT22;7289;50.706;4.992;2024-01-25T01:27:10;8.80;99.90
14409;DHT22;7289;50.706;4.992;2024-01-25T01:29:39;8.80;99.90
14409;DHT22;7289;50.706;4.992;2024-01-25T01:32:08;8.70;99.90
14409;DHT22;7289;50.706;4.992;2024-01-25T01:34:36;8.70;99.90
14409;DHT22;7289;50.706;4.992;2024-01-25T01:37:05;8.70;99.90
14409;DHT22;7289;50.706;4.992;2024-01-25T01:39:35;8.60;99.90
14409;DHT22;7289;50.706;4.992;2024-01-25T01:42:03;8.50;99.90
14409;DHT22;7289;50.706;4.992;2024-01-25T01:44:32;8.50;99.90
14409;DHT22;7289;50.706;4.992;2024-01-25T01:47:00;8.50;99.90
14409;DHT22;7289;50.706;4.992;2024-01-25T01:49:29;8.40;99.90
14409;DHT22;7289;50.706;4.992;2024-01-25T01:51:58;8.30;99.90
14409;DHT22;7289;50.706;4.992;2024-01-25T01:54:27;8.40;99.90
14409;DHT22;7289;50.706;4.992;2024-01-25T01:56:57;8.30;99.90
14409;DHT22;7289;50.706;4.992;2024-01-25T01:59:26;8.20;99.90
14409;DHT22;7289;50.706;4.992;2024-01-25T02:01:56;8.10;99.90
14409;DHT22;7289;50.706;4.992;2024-01-25T02:04:25;8.00;99.90
14409;DHT22;7289;50.706;4.992;2024-01-25T02:06:53;8.00;99.90
14409;DHT22;7289;50.706;4.992;2024-01-25T02:09:22;7.90;99.90
14409;DHT22;7289;50.706;4.992;2024-01-25T02:12:00;7.90;99.90
14409;DHT22;7289;50.706;4.992;2024-01-25T02:14:31;7.90;99.90
14409;DHT22;7289;50.706;4.992;2024-01-25T02:16:59;7.80;99.90
14409;DHT22;7289;50.706;4.992;2024-01-25T02:19:28;7.80;99.90
14409;DHT22;7289;50.706;4.992;2024-01-25T02:21:57;7.70;99.90
14409;DHT22;7289;50.706;4.992;2024-01-25T02:24:28;7.60;99.90
14409;DHT22;7289;50.706;4.992;2024-01-25T02:26:57;7.50;99.90
14409;DHT22;7289;50.706;4.992;2024-01-25T02:29:26;7.50;99.90
14409;DHT22;7289;50.706;4.992;2024-01-25T02:31:54;7.50;99.90
14409;DHT22;7289;50.706;4.992;2024-01-25T02:34:23;7.40;99.90
14409;DHT22;7289;50.706;4.992;2024-01-25T02:36:51;7.40;99.90
14409;DHT22;7289;50.706;4.992;2024-01-25T02:39:20;7.40;99.90
14409;DHT22;7289;50.706;4.992;2024-01-25T02:41:49;7.30;99.90
14409;DHT22;7289;50.706;4.992;2024-01-25T02:44:18;7.20;99.90
14409;DHT22;7289;50.706;4.992;2024-01-25T02:46:46;7.20;99.90
14409;DHT22;7289;50.706;4.992;2024-01-25T02:49:15;7.20;99.90
14409;DHT22;7289;50.706;4.992;2024-01-25T02:51:44;7.20;99.90
14409;DHT22;7289;50.706;4.992;2024-01-25T02:54:12;7.20;99.90
14409;DHT22;7289;50.706;4.992;2024-01-25T02:56:41;7.20;99.90
14409;DHT22;7289;50.706;4.992;2024-01-25T02:59:11;7.10;99.90
14409;DHT22;7289;50.706;4.992;2024-01-25T03:01:41;7.00;99.90
14409;DHT22;7289;50.706;4.992;2024-01-25T03:04:09;7.00;99.90
14409;DHT22;7289;50.706;4.992;2024-01-25T03:06:38;6.90;99.90
14409;DHT22;7289;50.706;4.992;2024-01-25T03:09:07;6.90;99.90
14409;DHT22;7289;50.706;4.992;2024-01-25T03:11:36;6.80;99.90
14409;DHT22;7289;50.706;4.992;2024-01-25T03:14:04;6.90;99.90
14409;DHT22;7289;50.706;4.992;2024-01-25T03:16:34;6.80;99.90
14409;DHT22;7289;50.706;4.992;2024-01-25T03:19:02;6.80;99.90
14409;DHT22;7289;50.706;4.992;2024-01-25T03:21:31;6.70;99.90
14409;DHT22;7289;50.706;4.992;2024-01-25T03:23:59;6.70;99.90
14409;DHT22;7289;50.706;4.992;2024-01-25T03:26:28;6.70;99.90
14409;DHT22;7289;50.706;4.992;2024-01-25T03:28:57;6.60;99.90
14409;DHT22;7289;50.706;4.992;2024-01-25T03:31:26;6.50;99.90
14409;DHT22;7289;50.706;4.992;2024-01-25T03:33:56;6.50;99.90
14409;DHT22;7289;50.706;4.992;2024-01-25T03:36:25;6.40;99.90
14409;DHT22;7289;50.706;4.992;2024-01-25T03:38:53;6.30;99.90
14409;DHT22;7289;50.706;4.992;2024-01-25T03:41:22;6.30;99.90
14409;DHT22;7289;50.706;4.992;2024-01-25T03:43:51;6.30;99.90
14409;DHT22;7289;50.706;4.992;2024-01-25T03:46:19;6.20;99.90
14409;DHT22;7289;50.706;4.992;2024-01-25T03:48:48;6.20;99.90
14409;DHT22;7289;50.706;4.992;2024-01-25T03:51:18;6.20;99.90
14409;DHT22;7289;50.706;4.992;2024-01-25T03:53:47;6.20;99.90
14409;DHT22;7289;50.706;4.992;2024-01-25T03:56:15;6.20;99.90
14409;DHT22;7289;50.706;4.992;2024-01-25T03:58:44;6.10;99.90
14409;DHT22;7289;50.706;4.992;2024-01-25T04:01:13;6.10;99.90
14409;DHT22;7289;50.706;4.992;2024-01-25T04:03:41;6.10;99.90
14409;DHT22;7289;50.706;4.992;2024-01-25T04:06:10;6.10;99.90
14409;DHT22;7289;50.706;4.992;2024-01-25T04:08:40;6.00;99.90
14409;DHT22;7289;50.706;4.992;2024-01-25T04:11:09;6.00;99.90
14409;DHT22;7289;50.706;4.992;2024-01-25T04:13:37;6.00;99.90
14409;DHT22;7289;50.706;4.992;2024-01-25T04:16:06;5.90;99.90
14409;DHT22;7289;50.706;4.992;2024-01-25T04:18:34;5.90;99.90
14409;DHT22;7289;50.706;4.992;2024-01-25T04:21:03;5.90;99.90
14409;DHT22;7289;50.706;4.992;2024-01-25T04:23:31;5.90;99.90
14409;DHT22;7289;50.706;4.992;2024-01-25T04:26:01;5.90;99.90
14409;DHT22;7289;50.706;4.992;2024-01-25T04:28:30;5.80;99.90
14409;DHT22;7289;50.706;4.992;2024-01-25T04:30:58;5.80;99.90
14409;DHT22;7289;50.706;4.992;2024-01-25T04:33:27;5.80;99.90
14409;DHT22;7289;50.706;4.992;2024-01-25T04:35:55;5.80;99.90
14409;DHT22;7289;50.706;4.992;2024-01-25T04:38:24;5.80;99.90
14409;DHT22;7289;50.706;4.992;2024-01-25T04:40:52;5.70;99.90
14409;DHT22;7289;50.706;4.992;2024-01-25T04:43:22;5.80;99.90
14409;DHT22;7289;50.706;4.992;2024-01-25T04:45:50;5.80;99.90
14409;DHT22;7289;50.706;4.992;2024-01-25T04:48:19;5.80;99.90
14409;DHT22;7289;50.706;4.992;2024-01-25T04:50:47;5.80;99.90
14409;DHT22;7289;50.706;4.992;2024-01-25T04:53:16;5.80;99.90
14409;DHT22;7289;50.706;4.992;2024-01-25T04:55:44;5.80;99.90
14409;DHT22;7289;50.706;4.992;2024-01-25T04:58:13;5.70;99.90
14409;DHT22;7289;50.706;4.992;2024-01-25T05:00:43;5.70;99.90
14409;DHT22;7289;50.706;4.992;2024-01-25T05:03:12;5.70;99.90
14409;DHT22;7289;50.706;4.992;2024-01-25T05:05:40;5.60;99.90
14409;DHT22;7289;50.706;4.992;2024-01-25T05:08:09;5.70;99.90
14409;DHT22;7289;50.706;4.992;2024-01-25T05:10:37;5.60;99.90
14409;DHT22;7289;50.706;4.992;2024-01-25T05:13:06;5.50;99.90
14409;DHT22;7289;50.706;4.992;2024-01-25T05:15:35;5.50;99.90
14409;DHT22;7289;50.706;4.992;2024-01-25T05:18:05;5.50;99.90
14409;DHT22;7289;50.706;4.992;2024-01-25T05:20:34;5.40;99.90
14409;DHT22;7289;50.706;4.992;2024-01-25T05:23:05;5.30;99.90
14409;DHT22;7289;50.706;4.992;2024-01-25T05:25:33;5.30;99.90
14409;DHT22;7289;50.706;4.992;2024-01-25T05:28:02;5.20;99.90
14409;DHT22;7289;50.706;4.992;2024-01-25T05:30:31;5.20;99.90
14409;DHT22;7289;50.706;4.992;2024-01-25T05:33:00;5.20;99.90
14409;DHT22;7289;50.706;4.992;2024-01-25T05:35:30;5.10;99.90
14409;DHT22;7289;50.706;4.992;2024-01-25T05:38:01;5.00;99.90
14409;DHT22;7289;50.706;4.992;2024-01-25T05:40:29;4.90;99.90
14409;DHT22;7289;50.706;4.992;2024-01-25T05:42:58;4.80;99.90
14409;DHT22;7289;50.706;4.992;2024-01-25T05:45:27;4.70;99.90
14409;DHT22;7289;50.706;4.992;2024-01-25T05:47:55;4.70;99.90
14409;DHT22;7289;50.706;4.992;2024-01-25T05:50:24;4.70;99.90
14409;DHT22;7289;50.706;4.992;2024-01-25T05:52:54;4.70;99.90
14409;DHT22;7289;50.706;4.992;2024-01-25T05:55:22;4.70;99.90
14409;DHT22;7289;50.706;4.992;2024-01-25T05:57:51;4.70;99.90
14409;DHT22;7289;50.706;4.992;2024-01-25T06:00:20;4.70;99.90
14409;DHT22;7289;50.706;4.992;2024-01-25T06:02:48;4.50;99.90
14409;DHT22;7289;50.706;4.992;2024-01-25T06:05:17;4.50;99.90
14409;DHT22;7289;50.706;4.992;2024-01-25T06:07:46;4.50;99.90
14409;DHT22;7289;50.706;4.992;2024-01-25T06:10:17;4.60;99.90
14409;DHT22;7289;50.706;4.992;2024-01-25T06:12:46;4.50;99.90
14409;DHT22;7289;50.706;4.992;2024-01-25T06:15:15;4.60;99.90
14409;DHT22;7289;50.706;4.992;2024-01-25T06:17:43;4.50;99.90
14409;DHT22;7289;50.706;4.992;2024-01-25T06:20:12;4.50;99.90
14409;DHT22;7289;50.706;4.992;2024-01-25T06:22:41;4.50;99.90
14409;DHT22;7289;50.706;4.992;2024-01-25T06:25:09;4.50;99.90
14409;DHT22;7289;50.706;4.992;2024-01-25T06:27:39;4.40;99.90
14409;DHT22;7289;50.706;4.992;2024-01-25T06:30:08;4.40;99.90
14409;DHT22;7289;50.706;4.992;2024-01-25T06:32:37;4.40;99.90
14409;DHT22;7289;50.706;4.992;2024-01-25T06:35:07;4.40;99.90
14409;DHT22;7289;50.706;4.992;2024-01-25T06:37:36;4.40;99.90
14409;DHT22;7289;50.706;4.992;2024-01-25T06:40:05;4.40;99.90
14409;DHT22;7289;50.706;4.992;2024-01-25T06:42:34;4.50;99.90
14409;DHT22;7289;50.706;4.992;2024-01-25T06:45:05;4.50;99.90
14409;DHT22;7289;50.706;4.992;2024-01-25T06:47:33;4.50;99.90
14409;DHT22;7289;50.706;4.992;2024-01-25T06:50:02;4.50;99.90
14409;DHT22;7289;50.706;4.992;2024-01-25T06:52:31;4.70;99.90
14409;DHT22;7289;50.706;4.992;2024-01-25T06:55:01;4.80;99.90
14409;DHT22;7289;50.706;4.992;2024-01-25T06:57:30;4.80;99.90
14409;DHT22;7289;50.706;4.992;2024-01-25T06:59:58;4.80;99.90
14409;DHT22;7289;50.706;4.992;2024-01-25T07:02:29;4.90;99.90
14409;DHT22;7289;50.706;4.992;2024-01-25T07:04:59;5.00;99.90
14409;DHT22;7289;50.706;4.992;2024-01-25T07:07:29;5.20;99.90
14409;DHT22;7289;50.706;4.992;2024-01-25T07:09:59;5.20;99.90
14409;DHT22;7289;50.706;4.992;2024-01-25T07:12:29;5.30;99.90
14409;DHT22;7289;50.706;4.992;2024-01-25T07:14:58;5.30;99.90
14409;DHT22;7289;50.706;4.992;2024-01-25T07:17:26;5.40;99.90
14409;DHT22;7289;50.706;4.992;2024-01-25T07:19:56;5.50;99.90
14409;DHT22;7289;50.706;4.992;2024-01-25T07:22:25;5.60;99.90
14409;DHT22;7289;50.706;4.992;2024-01-25T07:24:54;5.70;99.90
14409;DHT22;7289;50.706;4.992;2024-01-25T07:27:22;5.70;99.90
14409;DHT22;7289;50.706;4.992;2024-01-25T07:29:50;5.80;99.90
14409;DHT22;7289;50.706;4.992;2024-01-25T07:32:20;5.80;99.90
14409;DHT22;7289;50.706;4.992;2024-01-25T07:34:48;6.00;99.90
14409;DHT22;7289;50.706;4.992;2024-01-25T07:37:19;6.00;99.90
14409;DHT22;7289;50.706;4.992;2024-01-25T07:39:47;5.90;99.90
14409;DHT22;7289;50.706;4.992;2024-01-25T07:42:16;6.00;99.90
14409;DHT22;7289;50.706;4.992;2024-01-25T07:44:45;6.00;99.90
14409;DHT22;7289;50.706;4.992;2024-01-25T07:47:14;6.10;99.90
14409;DHT22;7289;50.706;4.992;2024-01-25T07:49:42;6.20;99.90
14409;DHT22;7289;50.706;4.992;2024-01-25T07:52:11;6.20;99.90
14409;DHT22;7289;50.706;4.992;2024-01-25T07:54:41;6.30;99.90
14409;DHT22;7289;50.706;4.992;2024-01-25T07:57:10;6.40;99.90
14409;DHT22;7289;50.706;4.992;2024-01-25T07:59:38;6.50;99.90
14409;DHT22;7289;50.706;4.992;2024-01-25T08:02:07;6.50;99.90
14409;DHT22;7289;50.706;4.992;2024-01-25T08:04:35;6.50;99.90
14409;DHT22;7289;50.706;4.992;2024-01-25T08:07:04;6.70;99.90
14409;DHT22;7289;50.706;4.992;2024-01-25T08:09:33;6.70;99.90
14409;DHT22;7289;50.706;4.992;2024-01-25T08:12:03;6.80;99.90
14409;DHT22;7289;50.706;4.992;2024-01-25T08:14:32;6.90;99.90
14409;DHT22;7289;50.706;4.992;2024-01-25T08:17:00;7.00;99.90
14409;DHT22;7289;50.706;4.992;2024-01-25T08:19:29;6.90;99.90
14409;DHT22;7289;50.706;4.992;2024-01-25T08:21:58;7.00;99.90
14409;DHT22;7289;50.706;4.992;2024-01-25T08:24:26;7.10;99.90
14409;DHT22;7289;50.706;4.992;2024-01-25T08:26:55;7.10;99.90
14409;DHT22;7289;50.706;4.992;2024-01-25T08:29:25;7.20;99.90
14409;DHT22;7289;50.706;4.992;2024-01-25T08:31:53;7.30;99.90
14409;DHT22;7289;50.706;4.992;2024-01-25T08:34:22;7.40;99.90
14409;DHT22;7289;50.706;4.992;2024-01-25T08:36:50;7.50;99.90
14409;DHT22;7289;50.706;4.992;2024-01-25T08:39:19;7.60;99.90
14409;DHT22;7289;50.706;4.992;2024-01-25T08:41:47;7.60;99.90
14409;DHT22;7289;50.706;4.992;2024-01-25T08:44:38;7.70;99.90
14409;DHT22;7289;50.706;4.992;2024-01-25T08:47:25;7.60;99.90
14409;DHT22;7289;50.706;4.992;2024-01-25T08:49:53;7.70;99.90
14409;DHT22;7289;50.706;4.992;2024-01-25T08:52:22;7.80;99.90
14409;DHT22;7289;50.706;4.992;2024-01-25T08:54:51;7.90;99.90
14409;DHT22;7289;50.706;4.992;2024-01-25T08:57:20;8.10;99.90
14409;DHT22;7289;50.706;4.992;2024-01-25T08:59:50;8.20;99.90
14409;DHT22;7289;50.706;4.992;2024-01-25T09:02:18;8.30;99.90
14409;DHT22;7289;50.706;4.992;2024-01-25T09:04:49;8.40;99.90
14409;DHT22;7289;50.706;4.992;2024-01-25T09:07:18;8.50;99.90
14409;DHT22;7289;50.706;4.992;2024-01-25T09:09:46;8.50;99.90
14409;DHT22;7289;50.706;4.992;2024-01-25T09:12:15;8.60;99.90
14409;DHT22;7289;50.706;4.992;2024-01-25T09:14:44;8.70;99.90
14409;DHT22;7289;50.706;4.992;2024-01-25T09:17:14;8.80;99.90
14409;DHT22;7289;50.706;4.992;2024-01-25T09:19:48;8.90;99.90
14409;DHT22;7289;50.706;4.992;2024-01-25T09:22:18;8.90;99.90
14409;DHT22;7289;50.706;4.992;2024-01-25T09:24:47;8.90;99.90
14409;DHT22;7289;50.706;4.992;2024-01-25T09:27:16;9.00;99.90
14409;DHT22;7289;50.706;4.992;2024-01-25T09:29:45;9.10;99.90
14409;DHT22;7289;50.706;4.992;2024-01-25T09:32:15;9.20;99.90
14409;DHT22;7289;50.706;4.992;2024-01-25T09:34:43;9.30;99.90
14409;DHT22;7289;50.706;4.992;2024-01-25T09:37:12;9.30;99.90
14409;DHT22;7289;50.706;4.992;2024-01-25T09:39:42;9.30;99.90
14409;DHT22;7289;50.706;4.992;2024-01-25T09:42:11;9.40;99.90
14409;DHT22;7289;50.706;4.992;2024-01-25T09:44:40;9.50;99.90
14409;DHT22;7289;50.706;4.992;2024-01-25T09:47:09;9.60;99.90
14409;DHT22;7289;50.706;4.992;2024-01-25T09:49:41;9.70;99.90
14409;DHT22;7289;50.706;4.992;2024-01-25T09:52:12;9.80;99.90
14409;DHT22;7289;50.706;4.992;2024-01-25T09:54:43;9.70;99.90
14409;DHT22;7289;50.706;4.992;2024-01-25T09:57:14;9.80;99.90
14409;DHT22;7289;50.706;4.992;2024-01-25T09:59:44;9.80;99.90
14409;DHT22;7289;50.706;4.992;2024-01-25T10:02:13;9.80;99.90
14409;DHT22;7289;50.706;4.992;2024-01-25T10:04:49;9.90;99.90
14409;DHT22;7289;50.706;4.992;2024-01-25T10:07:36;10.00;99.90
14409;DHT22;7289;50.706;4.992;2024-01-25T10:10:05;10.20;99.90
14409;DHT22;7289;50.706;4.992;2024-01-25T10:12:36;10.30;99.90
14409;DHT22;7289;50.706;4.992;2024-01-25T10:15:06;10.40;99.90
14409;DHT22;7289;50.706;4.992;2024-01-25T10:17:35;10.50;99.90
14409;DHT22;7289;50.706;4.992;2024-01-25T10:20:09;10.70;99.90
14409;DHT22;7289;50.706;4.992;2024-01-25T10:22:43;10.80;99.90
14409;DHT22;7289;50.706;4.992;2024-01-25T10:25:12;10.90;99.90
14409;DHT22;7289;50.706;4.992;2024-01-25T10:27:42;11.10;99.90
14409;DHT22;7289;50.706;4.992;2024-01-25T10:30:12;11.20;99.90
14409;DHT22;7289;50.706;4.992;2024-01-25T10:32:42;11.20;99.90
14409;DHT22;7289;50.706;4.992;2024-01-25T10:35:13;11.20;99.90
14409;DHT22;7289;50.706;4.992;2024-01-25T10:37:46;11.20;99.90
14409;DHT22;7289;50.706;4.992;2024-01-25T10:40:16;11.30;99.90
14409;DHT22;7289;50.706;4.992;2024-01-25T10:42:47;11.30;99.90
14409;DHT22;7289;50.706;4.992;2024-01-25T10:45:16;11.40;99.90
14409;DHT22;7289;50.706;4.992;2024-01-25T10:47:48;11.30;99.90
14409;DHT22;7289;50.706;4.992;2024-01-25T10:50:19;11.30;99.90
14409;DHT22;7289;50.706;4.992;2024-01-25T10:52:48;11.40;99.90
14409;DHT22;7289;50.706;4.992;2024-01-25T10:55:16;11.40;99.90
14409;DHT22;7289;50.706;4.992;2024-01-25T10:57:46;11.50;99.90
14409;DHT22;7289;50.706;4.992;2024-01-25T11:00:16;11.60;99.90
14409;DHT22;7289;50.706;4.992;2024-01-25T11:02:45;11.60;99.90
14409;DHT22;7289;50.706;4.992;2024-01-25T11:05:15;11.60;99.90
14409;DHT22;7289;50.706;4.992;2024-01-25T11:07:46;11.60;99.90
14409;DHT22;7289;50.706;4.992;2024-01-25T11:10:17;11.60;99.90
14409;DHT22;7289;50.706;4.992;2024-01-25T11:12:49;11.70;99.90
14409;DHT22;7289;50.706;4.992;2024-01-25T11:15:22;11.90;99.90
14409;DHT22;7289;50.706;4.992;2024-01-25T11:17:52;11.90;99.90
14409;DHT22;7289;50.706;4.992;2024-01-25T11:20:22;12.10;99.90
14409;DHT22;7289;50.706;4.992;2024-01-25T11:22:57;12.10;99.90
14409;DHT22;7289;50.706;4.992;2024-01-25T11:25:30;12.10;99.90
14409;DHT22;7289;50.706;4.992;2024-01-25T11:28:02;12.10;99.90
14409;DHT22;7289;50.706;4.992;2024-01-25T11:30:34;12.20;99.90
14409;DHT22;7289;50.706;4.992;2024-01-25T11:33:04;12.30;99.90
14409;DHT22;7289;50.706;4.992;2024-01-25T11:35:34;12.40;99.90
14409;DHT22;7289;50.706;4.992;2024-01-25T11:38:04;12.20;99.90
14409;DHT22;7289;50.706;4.992;2024-01-25T11:40:32;12.20;99.90
14409;DHT22;7289;50.706;4.992;2024-01-25T11:43:05;12.10;99.90
14409;DHT22;7289;50.706;4.992;2024-01-25T11:45:39;12.20;99.90
14409;DHT22;7289;50.706;4.992;2024-01-25T11:48:11;12.30;99.90
14409;DHT22;7289;50.706;4.992;2024-01-25T11:50:40;12.40;99.90
14409;DHT22;7289;50.706;4.992;2024-01-25T11:53:10;12.50;99.90
14409;DHT22;7289;50.706;4.992;2024-01-25T11:55:39;12.50;99.90
14409;DHT22;7289;50.706;4.992;2024-01-25T11:58:07;12.40;99.90
14409;DHT22;7289;50.706;4.992;2024-01-25T12:00:36;12.40;99.90
14409;DHT22;7289;50.706;4.992;2024-01-25T12:03:05;12.40;99.90
14409;DHT22;7289;50.706;4.992;2024-01-25T12:05:34;12.40;99.90
14409;DHT22;7289;50.706;4.992;2024-01-25T12:08:10;12.40;99.90
14409;DHT22;7289;50.706;4.992;2024-01-25T12:10:40;12.20;99.90
14409;DHT22;7289;50.706;4.992;2024-01-25T12:13:09;12.10;99.90
14409;DHT22;7289;50.706;4.992;2024-01-25T12:15:38;12.00;99.90
14409;DHT22;7289;50.706;4.992;2024-01-25T12:18:07;12.00;99.90
14409;DHT22;7289;50.706;4.992;2024-01-25T12:20:37;12.00;99.90
14409;DHT22;7289;50.706;4.992;2024-01-25T12:23:06;12.00;99.90
14409;DHT22;7289;50.706;4.992;2024-01-25T12:25:40;11.90;99.90
14409;DHT22;7289;50.706;4.992;2024-01-25T12:28:09;12.00;99.90
14409;DHT22;7289;50.706;4.992;2024-01-25T12:30:38;12.10;99.90
14409;DHT22;7289;50.706;4.992;2024-01-25T12:33:07;12.10;99.90
14409;DHT22;7289;50.706;4.992;2024-01-25T12:35:36;12.10;99.90
14409;DHT22;7289;50.706;4.992;2024-01-25T12:38:07;12.10;99.90
14409;DHT22;7289;50.706;4.992;2024-01-25T12:40:36;12.10;99.90
14409;DHT22;7289;50.706;4.992;2024-01-25T12:43:07;12.10;99.90
14409;DHT22;7289;50.706;4.992;2024-01-25T12:45:37;12.00;99.90
14409;DHT22;7289;50.706;4.992;2024-01-25T12:48:06;12.10;99.90
14409;DHT22;7289;50.706;4.992;2024-01-25T12:50:35;12.10;99.90
14409;DHT22;7289;50.706;4.992;2024-01-25T12:53:04;12.20;99.90
14409;DHT22;7289;50.706;4.992;2024-01-25T12:55:33;12.10;99.90
14409;DHT22;7289;50.706;4.992;2024-01-25T12:58:02;12.10;99.90
14409;DHT22;7289;50.706;4.992;2024-01-25T13:00:32;12.10;99.90
14409;DHT22;7289;50.706;4.992;2024-01-25T13:03:01;12.20;99.90
14409;DHT22;7289;50.706;4.992;2024-01-25T13:05:30;12.30;99.90
14409;DHT22;7289;50.706;4.992;2024-01-25T13:08:02;12.30;99.90
14409;DHT22;7289;50.706;4.992;2024-01-25T13:10:30;12.40;99.90
14409;DHT22;7289;50.706;4.992;2024-01-25T13:12:59;12.40;99.90
14409;DHT22;7289;50.706;4.992;2024-01-25T13:15:27;12.40;99.90
14409;DHT22;7289;50.706;4.992;2024-01-25T13:17:58;12.50;99.90
14409;DHT22;7289;50.706;4.992;2024-01-25T13:20:28;12.60;99.90
14409;DHT22;7289;50.706;4.992;2024-01-25T13:22:56;12.50;99.90
14409;DHT22;7289;50.706;4.992;2024-01-25T13:25:25;12.50;99.90
14409;DHT22;7289;50.706;4.992;2024-01-25T13:27:53;12.60;99.90
14409;DHT22;7289;50.706;4.992;2024-01-25T13:30:22;12.60;99.90
14409;DHT22;7289;50.706;4.992;2024-01-25T13:32:50;12.60;99.90
14409;DHT22;7289;50.706;4.992;2024-01-25T13:35:20;12.50;99.90
14409;DHT22;7289;50.706;4.992;2024-01-25T13:37:49;12.40;99.90
14409;DHT22;7289;50.706;4.992;2024-01-25T13:40:17;12.50;99.90
14409;DHT22;7289;50.706;4.992;2024-01-25T13:42:47;12.40;99.90
14409;DHT22;7289;50.706;4.992;2024-01-25T13:45:16;12.50;99.90
14409;DHT22;7289;50.706;4.992;2024-01-25T13:47:45;12.60;99.90
14409;DHT22;7289;50.706;4.992;2024-01-25T13:50:13;12.70;99.90
14409;DHT22;7289;50.706;4.992;2024-01-25T13:52:43;12.80;99.90
14409;DHT22;7289;50.706;4.992;2024-01-25T13:55:11;12.90;99.90
14409;DHT22;7289;50.706;4.992;2024-01-25T13:57:40;12.90;99.90
14409;DHT22;7289;50.706;4.992;2024-01-25T14:00:09;12.80;99.90
14409;DHT22;7289;50.706;4.992;2024-01-25T14:02:40;12.80;99.90
14409;DHT22;7289;50.706;4.992;2024-01-25T14:05:12;12.70;99.90
14409;DHT22;7289;50.706;4.992;2024-01-25T14:07:40;12.70;99.90
14409;DHT22;7289;50.706;4.992;2024-01-25T14:10:11;12.60;99.90
14409;DHT22;7289;50.706;4.992;2024-01-25T14:12:39;12.60;99.90
14409;DHT22;7289;50.706;4.992;2024-01-25T14:15:08;12.60;99.90
14409;DHT22;7289;50.706;4.992;2024-01-25T14:17:37;12.40;99.90
14409;DHT22;7289;50.706;4.992;2024-01-25T14:20:07;12.40;99.90
14409;DHT22;7289;50.706;4.992;2024-01-25T14:22:36;12.30;99.90
14409;DHT22;7289;50.706;4.992;2024-01-25T14:25:05;12.20;99.90
14409;DHT22;7289;50.706;4.992;2024-01-25T14:27:36;12.20;99.90
14409;DHT22;7289;50.706;4.992;2024-01-25T14:30:05;12.20;99.90
14409;DHT22;7289;50.706;4.992;2024-01-25T14:32:36;12.10;99.90
14409;DHT22;7289;50.706;4.992;2024-01-25T14:35:05;12.10;99.90
14409;DHT22;7289;50.706;4.992;2024-01-25T14:37:34;12.10;99.90
14409;DHT22;7289;50.706;4.992;2024-01-25T14:40:03;12.10;99.90
14409;DHT22;7289;50.706;4.992;2024-01-25T14:42:53;12.10;99.90
14409;DHT22;7289;50.706;4.992;2024-01-25T14:45:23;12.00;99.90
14409;DHT22;7289;50.706;4.992;2024-01-25T14:47:53;12.10;99.90
14409;DHT22;7289;50.706;4.992;2024-01-25T14:50:21;12.00;99.90
14409;DHT22;7289;50.706;4.992;2024-01-25T14:52:50;12.00;99.90
14409;DHT22;7289;50.706;4.992;2024-01-25T14:55:18;12.00;99.90
14409;DHT22;7289;50.706;4.992;2024-01-25T14:57:47;12.10;99.90
14409;DHT22;7289;50.706;4.992;2024-01-25T15:00:17;12.10;99.90
14409;DHT22;7289;50.706;4.992;2024-01-25T15:02:47;12.10;99.90
14409;DHT22;7289;50.706;4.992;2024-01-25T15:05:15;12.20;99.90
14409;DHT22;7289;50.706;4.992;2024-01-25T15:07:44;12.20;99.90
14409;DHT22;7289;50.706;4.992;2024-01-25T15:10:13;12.30;99.90
14409;DHT22;7289;50.706;4.992;2024-01-25T15:12:43;12.30;99.90
14409;DHT22;7289;50.706;4.992;2024-01-25T15:15:13;12.20;99.90
14409;DHT22;7289;50.706;4.992;2024-01-25T15:17:43;12.20;99.90
14409;DHT22;7289;50.706;4.992;2024-01-25T15:20:12;12.20;99.90
14409;DHT22;7289;50.706;4.992;2024-01-25T15:22:40;12.30;99.90
14409;DHT22;7289;50.706;4.992;2024-01-25T15:25:09;12.30;99.90
14409;DHT22;7289;50.706;4.992;2024-01-25T15:27:37;12.30;99.90
14409;DHT22;7289;50.706;4.992;2024-01-25T15:30:07;12.30;99.90
14409;DHT22;7289;50.706;4.992;2024-01-25T15:32:39;12.30;99.90
14409;DHT22;7289;50.706;4.992;2024-01-25T15:35:11;12.30;99.90
14409;DHT22;7289;50.706;4.992;2024-01-25T15:37:39;12.20;99.90
14409;DHT22;7289;50.706;4.992;2024-01-25T15:40:11;12.20;99.90
14409;DHT22;7289;50.706;4.992;2024-01-25T15:42:43;12.10;99.90
14409;DHT22;7289;50.706;4.992;2024-01-25T15:45:12;12.10;99.90
14409;DHT22;7289;50.706;4.992;2024-01-25T15:47:41;12.10;99.90
14409;DHT22;7289;50.706;4.992;2024-01-25T15:50:13;12.00;99.90
14409;DHT22;7289;50.706;4.992;2024-01-25T15:52:41;12.00;99.90
14409;DHT22;7289;50.706;4.992;2024-01-25T15:55:10;12.00;99.90
14409;DHT22;7289;50.706;4.992;2024-01-25T15:57:38;12.00;99.90
14409;DHT22;7289;50.706;4.992;2024-01-25T16:00:08;12.00;99.90
14409;DHT22;7289;50.706;4.992;2024-01-25T16:02:37;12.00;99.90
14409;DHT22;7289;50.706;4.992;2024-01-25T16:05:06;11.90;99.90
14409;DHT22;7289;50.706;4.992;2024-01-25T16:07:36;11.90;99.90